Terminal Aerodrome Forecast
Issued by NWS Northern Indiana

Home | Current Version | Previous Version | Text Only | Print | Product List | Glossary On
Versions: 1 2 3 4 5 6 7 8 9 10 11 12 13 14 15 16 17 18
000
FTUS43 KIWX 271730
TAFFWA
TAF
KFWA 271730Z 2718/2818 13006KT P6SM VCSH SCT015 BKN035
     FM272000 18008KT P6SM SCT040 BKN200
     FM280300 VRB03KT P6SM FEW040 BKN250
     FM280800 VRB03KT 4SM BR SCT010 BKN150
      TEMPO 2809/2812 1 1/2SM BR BKN010
     FM281230 VRB03KT P6SM SCT020 BKN150=

USA.gov is the U.S. government's official web portal to all federal, state and local government web resources and services.